Hauptseite
METAR-TAF:

METAR-TAF

Flughäfen :

Flughafen Albacete

Albacete, Spanien

Breite: 38-57N, Länge: 001-51W, Höhe: 702 m

Beobachtung

Neuester Wetterbericht von vor 1 Stunde und 10 Minuten, um 23:00 UTC
Wind 7 kt aus West
Temperatur 4°C
Luftfeuchtigkeit 81%
Luftdruck 1025 hPa
Sichtweite 10 km oder mehr
keine Wolken unter 1500 m und keine Kumulonimbus oder Gewitterwolken

METAR: LEAB 112300Z 26007KT CAVOK 04/01 Q1025 NOSIG

Zeit: 01:10 (00:10 UTC)

Prognose

Neuester Wetterbericht von vor 1 Stunde und 10 Minuten, um 23:00 UTC
Gültige Prognose vom 12 um 00 UTC bis 12 um 09 UTC
Wind 7 kt aus West/Südwest
Sichtweite 10 km oder mehr
keine Wolken unter 1500 m und keine Kumulonimbus oder Gewitterwolken
Wahrscheinlichkeit 30% :
Zeitweise
vom 12 um 00 UTC bis 12 um 02 UTC
Sichtweite: 4500 m
feuchter Dunst

TAF: LEAB 112300Z 1200/1209 24007KT CAVOK PROB30 TEMPO 1200/1202 4500 BR

Wetterbeobachtungen und Prognosen von mehr als 4000 Flughäfen (METAR und TAF Bericht).

Die verfügbaren Stationen werden durch gelbe und rote Markierungen auf der Karte dargestellt.

Führen Sie die Maus auf sie, um den Namen der Station zu sehen.

Darauf klicken, um die Beobachtung von Wetterbeobachtungen und Prognosen zu sehen.

Um die Karte zu ändern : klicken Sie auf den grünen Tasten mit einem schwarzen Kreuz Zum Vergrößern, auf den grünen Button mit einem Gedankenstrich zu verkleinern, oder auf die grünen Pfeile für benachbarte Karten.


METAR-TAF: